createdAt,value
2022-11-14T00:00:38.701Z,18.2
2022-11-14T00:01:41.308Z,18.3
2022-11-14T00:02:43.613Z,18.2
2022-11-14T00:03:46.525Z,18.3
2022-11-14T00:04:48.446Z,18.3
2022-11-14T00:05:50.639Z,18.3
2022-11-14T00:06:53.038Z,18.3
2022-11-14T00:07:56.002Z,18.3
2022-11-14T00:08:57.939Z,18.3
2022-11-14T00:10:00.154Z,18.3
2022-11-14T00:11:02.074Z,18.4
2022-11-14T00:12:04.573Z,18.3
2022-11-14T00:13:06.487Z,18.4
2022-11-14T00:14:08.951Z,18.4
2022-11-14T00:15:11.432Z,18.4
2022-11-14T00:16:14.045Z,18.4
2022-11-14T00:17:16.642Z,18.3
2022-11-14T00:18:19.122Z,18.4
2022-11-14T00:19:21.712Z,18.4
2022-11-14T00:20:23.623Z,18.4
2022-11-14T00:21:26.096Z,18.5
2022-11-14T00:22:28.568Z,18.4
2022-11-14T00:23:31.260Z,18.4
2022-11-14T00:24:32.903Z,18.5
2022-11-14T00:25:34.563Z,18.4
2022-11-14T00:26:36.471Z,18.3
2022-11-14T00:27:38.676Z,18.4
2022-11-14T00:28:41.139Z,18.5
2022-11-14T00:29:43.645Z,18.4
2022-11-14T00:30:45.840Z,18.4
2022-11-14T00:31:47.873Z,18.4
2022-11-14T00:32:50.454Z,18.4
2022-11-14T00:33:52.476Z,18.5
2022-11-14T00:34:55.072Z,18.4
2022-11-14T00:35:57.547Z,18.4
2022-11-14T00:37:00.023Z,18.4
2022-11-14T00:38:01.944Z,18.5
2022-11-14T00:39:04.395Z,18.5
2022-11-14T00:40:06.580Z,18.6
2022-11-14T00:41:08.539Z,18.5
2022-11-14T00:42:10.731Z,18.6
2022-11-14T00:43:13.207Z,18.6
2022-11-14T00:44:15.121Z,18.5
2022-11-14T00:45:17.595Z,18.6
2022-11-14T00:46:19.875Z,18.6
2022-11-14T00:47:22.466Z,18.7
2022-11-14T00:48:24.774Z,18.5
2022-11-14T00:49:27.292Z,18.6
2022-11-14T00:50:29.895Z,18.5
2022-11-14T00:51:31.801Z,18.5
2022-11-14T00:52:34.269Z,18.5
2022-11-14T00:53:36.195Z,18.5
2022-11-14T00:54:38.886Z,18.6
2022-11-14T00:55:41.091Z,18.5
2022-11-14T00:56:43.277Z,18.5
2022-11-14T00:57:44.907Z,18.6
2022-11-14T00:58:46.549Z,18.6
2022-11-14T00:59:49.027Z,18.6
2022-11-14T01:00:51.633Z,18.5
2022-11-14T01:02:59.244Z,18.5
2022-11-14T01:04:01.552Z,18.5
2022-11-14T01:05:03.755Z,18.5
2022-11-14T01:06:06.352Z,18.6
2022-11-14T01:07:08.365Z,18.5
2022-11-14T01:08:10.579Z,18.6
2022-11-14T01:09:12.870Z,18.6
2022-11-14T01:10:15.794Z,18.6
2022-11-14T01:11:17.717Z,18.6
2022-11-14T01:12:20.193Z,18.5
2022-11-14T01:13:22.393Z,18.6
2022-11-14T01:14:24.597Z,18.7
2022-11-14T01:15:27.073Z,18.6
2022-11-14T01:16:29.549Z,18.6
2022-11-14T01:17:32.027Z,18.6
2022-11-14T01:18:34.616Z,18.6
2022-11-14T01:19:37.193Z,18.7
2022-11-14T01:20:39.391Z,18.6
2022-11-14T01:21:41.904Z,18.6
2022-11-14T01:22:44.378Z,18.7
2022-11-14T01:23:46.647Z,18.6
2022-11-14T01:24:48.847Z,18.6
2022-11-14T01:25:51.275Z,18.6
2022-11-14T01:26:53.756Z,18.6
2022-11-14T01:27:56.241Z,18.6
2022-11-14T01:28:58.169Z,18.7
2022-11-14T01:30:00.649Z,18.7
2022-11-14T01:31:02.861Z,18.7
2022-11-14T01:32:05.052Z,18.6
2022-11-14T01:33:07.529Z,18.7
2022-11-14T01:34:10.123Z,18.7
2022-11-14T01:35:12.626Z,18.6
2022-11-14T01:36:15.086Z,18.7
2022-11-14T01:37:17.395Z,18.7
2022-11-14T01:38:19.860Z,18.7
2022-11-14T01:39:22.063Z,18.7
2022-11-14T01:40:24.256Z,18.7
2022-11-14T01:41:26.959Z,18.7
2022-11-14T01:42:29.443Z,18.7
2022-11-14T01:43:31.644Z,18.8
2022-11-14T01:44:33.278Z,18.7
2022-11-14T01:45:35.475Z,18.8
2022-11-14T01:46:37.676Z,18.8
2022-11-14T01:47:39.855Z,18.7
2022-11-14T01:48:42.053Z,18.7
2022-11-14T01:49:44.353Z,18.7
2022-11-14T01:50:46.653Z,18.8
2022-11-14T01:51:49.139Z,18.8
2022-11-14T01:52:51.457Z,18.7
2022-11-14T01:53:53.664Z,18.8
2022-11-14T01:54:56.142Z,18.8
2022-11-14T01:55:58.639Z,18.8
2022-11-14T01:57:01.098Z,18.8
2022-11-14T01:58:03.582Z,18.8
2022-11-14T01:59:05.795Z,18.8
2022-11-14T02:00:07.695Z,18.8
2022-11-14T02:01:10.002Z,18.7
2022-11-14T02:02:12.475Z,18.8
2022-11-14T02:03:14.948Z,18.8
2022-11-14T02:04:17.429Z,18.8
2022-11-14T02:05:20.025Z,18.9
2022-11-14T02:06:24.410Z,18.9
2022-11-14T02:07:27.055Z,18.9
2022-11-14T02:08:30.395Z,18.8
2022-11-14T02:09:33.633Z,18.9
2022-11-14T02:10:35.834Z,18.8
2022-11-14T02:11:38.027Z,18.8
2022-11-14T02:12:40.451Z,18.9
2022-11-14T02:13:42.086Z,18.9
2022-11-14T02:14:44.275Z,18.8
2022-11-14T02:15:46.816Z,18.9
2022-11-14T02:17:54.282Z,18.8
2022-11-14T02:18:56.489Z,18.8
2022-11-14T02:21:04.053Z,18.9
2022-11-14T02:22:06.640Z,19
2022-11-14T02:23:08.851Z,18.8
2022-11-14T02:24:11.550Z,18.9
2022-11-14T02:25:14.036Z,18.9
2022-11-14T02:26:16.504Z,18.8
2022-11-14T02:27:18.700Z,18.7
2022-11-14T02:28:21.400Z,18.9
2022-11-14T02:29:23.877Z,18.8
2022-11-14T02:30:26.396Z,18.9
2022-11-14T02:31:28.300Z,18.9
2022-11-14T02:33:35.771Z,18.8
2022-11-14T02:34:37.958Z,18.8
2022-11-14T02:35:39.574Z,19
2022-11-14T02:36:42.177Z,18.9
2022-11-14T02:37:44.748Z,18.9
2022-11-14T02:38:46.950Z,18.9
2022-11-14T02:39:49.248Z,18.9
2022-11-14T02:40:51.722Z,18.9
2022-11-14T02:41:53.911Z,18.9
2022-11-14T02:42:56.101Z,18.8
2022-11-14T02:43:58.794Z,19
2022-11-14T02:45:00.713Z,18.9
2022-11-14T02:47:08.173Z,18.9
2022-11-14T02:48:10.701Z,19.1
2022-11-14T02:49:13.529Z,18.9
2022-11-14T02:50:15.752Z,18.9
2022-11-14T02:51:17.914Z,18.9
2022-11-14T02:52:20.251Z,18.9
2022-11-14T02:53:22.833Z,18.9
2022-11-14T02:54:25.033Z,18.8
2022-11-14T02:55:27.031Z,19
2022-11-14T02:56:29.230Z,18.9
2022-11-14T02:57:31.144Z,19.1
2022-11-14T02:58:33.824Z,18.9
2022-11-14T02:59:36.516Z,18.9
2022-11-14T03:01:44.164Z,18.8
2022-11-14T03:02:46.775Z,18.7
2022-11-14T03:03:48.973Z,18.9
2022-11-14T03:04:51.177Z,18.8
2022-11-14T03:05:53.401Z,19
2022-11-14T03:06:55.719Z,18.9
2022-11-14T03:07:58.016Z,18.9
2022-11-14T03:09:00.331Z,19
2022-11-14T03:10:02.798Z,18.9
2022-11-14T03:11:05.152Z,19
2022-11-14T03:12:07.341Z,19
2022-11-14T03:13:09.840Z,19
2022-11-14T03:14:12.323Z,18.9
2022-11-14T03:15:14.754Z,19.1
2022-11-14T03:16:17.239Z,19
2022-11-14T03:17:19.410Z,18.9
2022-11-14T03:18:21.578Z,19
2022-11-14T03:19:24.047Z,18.9
2022-11-14T03:20:26.542Z,19
2022-11-14T03:21:29.018Z,18.9
2022-11-14T03:22:30.955Z,19
2022-11-14T03:23:33.543Z,19
2022-11-14T03:24:36.118Z,18.9
2022-11-14T03:25:38.036Z,19
2022-11-14T03:26:40.617Z,19
2022-11-14T03:27:42.825Z,18.9
2022-11-14T03:28:44.993Z,18.9
2022-11-14T03:29:47.479Z,19.1
2022-11-14T03:30:50.167Z,19
2022-11-14T03:31:51.814Z,18.9
2022-11-14T03:32:53.994Z,19
2022-11-14T03:33:56.500Z,18.9
2022-11-14T03:34:58.970Z,19
2022-11-14T03:36:01.196Z,19
2022-11-14T03:37:03.385Z,19.1
2022-11-14T03:38:05.585Z,18.9
2022-11-14T03:39:07.335Z,18.9
2022-11-14T03:40:09.624Z,19
2022-11-14T03:41:12.086Z,19
2022-11-14T03:42:14.395Z,19
2022-11-14T03:43:16.881Z,18.9
2022-11-14T03:44:19.365Z,19.2
2022-11-14T03:45:21.829Z,19
2022-11-14T03:46:23.974Z,19
2022-11-14T03:47:26.442Z,19
2022-11-14T03:48:29.621Z,19.1
2022-11-14T03:49:34.088Z,19.1
2022-11-14T03:50:36.290Z,19
2022-11-14T03:51:38.480Z,18.9
2022-11-14T03:52:40.677Z,19
2022-11-14T03:53:42.862Z,18.9
2022-11-14T03:54:45.490Z,19
2022-11-14T03:55:48.092Z,18.9
2022-11-14T03:56:50.280Z,19
2022-11-14T03:57:52.588Z,19.1
2022-11-14T03:58:55.050Z,19
2022-11-14T03:59:57.005Z,19
2022-11-14T04:00:59.435Z,18.9
2022-11-14T04:02:02.131Z,18.9
2022-11-14T04:03:04.627Z,19
2022-11-14T04:04:06.816Z,19
2022-11-14T04:05:09.302Z,19
2022-11-14T04:06:11.209Z,19
2022-11-14T04:07:13.843Z,18.8
2022-11-14T04:08:16.394Z,18.8
2022-11-14T04:09:18.866Z,18.9
2022-11-14T04:10:21.188Z,18.9
2022-11-14T04:11:23.525Z,18.9
2022-11-14T04:12:25.434Z,19
2022-11-14T04:13:28.018Z,18.8
2022-11-14T04:14:30.214Z,18.9
2022-11-14T04:15:32.683Z,18.9
2022-11-14T04:16:34.883Z,18.9
2022-11-14T04:18:42.316Z,18.8
2022-11-14T04:19:44.790Z,18.8
2022-11-14T04:20:46.977Z,18.8
2022-11-14T04:21:49.166Z,18.8
2022-11-14T04:22:51.347Z,18.8
2022-11-14T04:23:53.543Z,18.8
2022-11-14T04:24:55.729Z,18.9
2022-11-14T04:25:58.327Z,18.9
2022-11-14T04:27:00.912Z,18.9
2022-11-14T04:28:03.155Z,18.8
2022-11-14T04:29:05.736Z,18.8
2022-11-14T04:30:07.943Z,18.7
2022-11-14T04:31:09.857Z,18.7
2022-11-14T04:32:12.337Z,18.7
2022-11-14T04:33:15.045Z,18.7
2022-11-14T04:34:17.262Z,18.7
2022-11-14T04:35:19.454Z,18.7
2022-11-14T04:36:22.038Z,18.6
2022-11-14T04:37:24.231Z,18.7
2022-11-14T04:38:26.533Z,18.7
2022-11-14T04:39:30.252Z,18.6
2022-11-14T04:40:32.328Z,18.6
2022-11-14T04:41:34.642Z,18.7
2022-11-14T04:42:37.271Z,18.7
2022-11-14T04:43:39.872Z,18.7
2022-11-14T04:44:42.051Z,18.7
2022-11-14T04:45:44.309Z,18.7
2022-11-14T04:46:46.496Z,18.6
2022-11-14T04:47:48.732Z,18.7
2022-11-14T04:48:51.511Z,18.6
2022-11-14T04:49:53.889Z,18.6
2022-11-14T04:50:56.509Z,18.6
2022-11-14T04:51:59.020Z,18.6
2022-11-14T04:53:01.286Z,18.6
2022-11-14T04:54:03.797Z,18.7
2022-11-14T04:55:06.276Z,18.7
2022-11-14T04:56:08.748Z,18.6
2022-11-14T04:57:10.799Z,18.6
2022-11-14T04:58:13.116Z,18.6
2022-11-14T05:00:20.025Z,18.6
2022-11-14T05:01:22.379Z,18.5
2022-11-14T05:02:25.150Z,18.7
2022-11-14T05:03:26.800Z,18.6
2022-11-14T05:04:29.029Z,18.6
2022-11-14T05:05:31.503Z,18.5
2022-11-14T05:06:33.707Z,18.7
2022-11-14T05:07:36.483Z,18.5
2022-11-14T05:08:39.163Z,18.6
2022-11-14T05:09:41.640Z,18.6
2022-11-14T05:10:44.112Z,18.6
2022-11-14T05:11:46.312Z,18.6
2022-11-14T05:12:48.517Z,18.6
2022-11-14T05:13:51.029Z,18.6
2022-11-14T05:14:53.535Z,18.6
2022-11-14T05:15:55.732Z,18.5
2022-11-14T05:16:57.935Z,18.5
2022-11-14T05:18:00.413Z,18.6
2022-11-14T05:19:03.158Z,18.6
2022-11-14T05:20:05.679Z,18.7
2022-11-14T05:21:07.316Z,18.5
2022-11-14T05:22:09.513Z,18.6
2022-11-14T05:23:11.980Z,18.5
2022-11-14T05:24:14.450Z,18.6
2022-11-14T05:25:16.926Z,18.5
2022-11-14T05:26:19.411Z,18.5
2022-11-14T05:27:21.879Z,18.6
2022-11-14T05:28:23.837Z,18.4
2022-11-14T05:29:26.338Z,18.5
2022-11-14T05:30:28.893Z,18.6
2022-11-14T05:31:31.393Z,18.6
2022-11-14T05:32:33.923Z,18.5
2022-11-14T05:33:36.398Z,18.5
2022-11-14T05:34:38.890Z,18.5
2022-11-14T05:35:41.410Z,18.5
2022-11-14T05:36:43.611Z,18.6
2022-11-14T05:37:45.802Z,18.4
2022-11-14T05:38:47.169Z,18.5
2022-11-14T05:39:49.653Z,18.5
2022-11-14T05:40:52.131Z,18.5
2022-11-14T05:41:54.598Z,18.6
2022-11-14T05:42:57.089Z,18.5
2022-11-14T05:43:59.315Z,18.5
2022-11-14T05:45:01.532Z,18.6
2022-11-14T05:46:04.055Z,18.6
2022-11-14T05:47:05.977Z,18.6
2022-11-14T05:48:08.269Z,18.5
2022-11-14T05:49:10.191Z,18.5
2022-11-14T05:50:12.658Z,18.4
2022-11-14T05:51:14.920Z,18.5
2022-11-14T05:52:17.117Z,18.5
2022-11-14T05:53:19.310Z,18.5
2022-11-14T05:54:21.800Z,18.5
2022-11-14T05:55:25.718Z,18.5
2022-11-14T05:56:27.740Z,18.6
2022-11-14T05:57:30.265Z,18.4
2022-11-14T05:58:33.511Z,18.4
2022-11-14T05:59:36.049Z,18.4
2022-11-14T06:01:43.656Z,18.5
2022-11-14T06:02:46.416Z,18.4
2022-11-14T06:03:48.063Z,18.5
2022-11-14T06:04:50.556Z,18.5
2022-11-14T06:05:53.044Z,18.5
2022-11-14T06:06:55.680Z,18.5
2022-11-14T06:07:58.113Z,18.6
2022-11-14T06:09:00.604Z,18.5
2022-11-14T06:10:02.793Z,18.4
2022-11-14T06:11:05.271Z,18.5
2022-11-14T06:12:07.498Z,18.5
2022-11-14T06:13:09.426Z,18.5
2022-11-14T06:14:11.666Z,18.5
2022-11-14T06:15:14.163Z,18.5
2022-11-14T06:16:16.651Z,18.5
2022-11-14T06:17:19.161Z,18.4
2022-11-14T06:18:21.634Z,18.5
2022-11-14T06:19:24.153Z,18.5
2022-11-14T06:20:26.624Z,18.5
2022-11-14T06:21:28.253Z,18.6
2022-11-14T06:22:30.481Z,18.5
2022-11-14T06:23:32.112Z,18.5
2022-11-14T06:24:34.328Z,18.4
2022-11-14T06:25:36.806Z,18.5
2022-11-14T06:26:38.465Z,18.5
2022-11-14T06:27:40.374Z,18.5
2022-11-14T06:28:42.846Z,18.5
2022-11-14T06:29:45.337Z,18.5
2022-11-14T06:30:47.566Z,18.5
2022-11-14T06:31:50.074Z,18.4
2022-11-14T06:32:52.575Z,18.4
2022-11-14T06:33:54.813Z,18.4
2022-11-14T06:34:57.062Z,18.5
2022-11-14T06:35:59.271Z,18.5
2022-11-14T06:37:00.907Z,18.4
2022-11-14T06:38:03.428Z,18.5
2022-11-14T06:39:05.633Z,18.5
2022-11-14T06:40:07.837Z,18.4
2022-11-14T06:41:10.034Z,18.5
2022-11-14T06:42:12.212Z,18.5
2022-11-14T06:43:14.137Z,18.5
2022-11-14T06:44:16.340Z,18.4
2022-11-14T06:45:19.831Z,18.4
2022-11-14T06:46:22.358Z,18.4
2022-11-14T06:47:24.853Z,18.5
2022-11-14T06:48:26.909Z,18.4
2022-11-14T06:49:30.985Z,18.4
2022-11-14T06:50:36.962Z,18.4
2022-11-14T06:51:39.166Z,18.5
2022-11-14T06:52:41.643Z,18.4
2022-11-14T06:53:43.884Z,18.5
2022-11-14T06:54:46.070Z,18.4
2022-11-14T06:55:48.283Z,18.4
2022-11-14T06:56:50.497Z,18.4
2022-11-14T06:57:52.713Z,18.4
2022-11-14T06:58:54.635Z,18.5
2022-11-14T06:59:56.854Z,18.5
2022-11-14T07:00:59.325Z,18.5
2022-11-14T07:02:01.568Z,18.5
2022-11-14T07:03:03.891Z,18.5
2022-11-14T07:04:06.150Z,18.3
2022-11-14T07:05:08.662Z,18.5
2022-11-14T07:06:10.903Z,18.5
2022-11-14T07:07:13.235Z,18.5
2022-11-14T07:09:20.986Z,18.5
2022-11-14T07:10:23.229Z,18.5
2022-11-14T07:11:25.448Z,18.4
2022-11-14T07:12:27.394Z,18.5
2022-11-14T07:13:29.611Z,18.4
2022-11-14T07:14:31.534Z,18.4
2022-11-14T07:15:34.015Z,18.3
2022-11-14T07:16:36.203Z,18.4
2022-11-14T07:17:38.431Z,18.4
2022-11-14T07:18:40.923Z,18.5
2022-11-14T07:19:42.850Z,18.4
2022-11-14T07:20:45.031Z,18.4
2022-11-14T07:21:47.262Z,18.4
2022-11-14T07:22:49.182Z,18.4
2022-11-14T07:23:51.382Z,18.4
2022-11-14T07:24:53.588Z,18.4
2022-11-14T07:25:55.865Z,18.4
2022-11-14T07:26:58.348Z,18.4
2022-11-14T07:28:00.838Z,18.5
2022-11-14T07:29:03.682Z,18.4
2022-11-14T07:30:06.166Z,18.3
2022-11-14T07:31:08.363Z,18.4
2022-11-14T07:32:10.843Z,18.4
2022-11-14T07:33:13.361Z,18.4
2022-11-14T07:34:15.579Z,18.5
2022-11-14T07:35:17.784Z,18.4
2022-11-14T07:36:19.997Z,18.5
2022-11-14T07:37:22.503Z,18.4
2022-11-14T07:38:24.709Z,18.4
2022-11-14T07:39:27.191Z,18.4
2022-11-14T07:40:29.477Z,18.3
2022-11-14T07:41:31.762Z,18.3
2022-11-14T07:42:34.244Z,18.5
2022-11-14T07:43:36.471Z,18.5
2022-11-14T07:44:38.674Z,18.4
2022-11-14T07:45:41.165Z,18.4
2022-11-14T07:46:43.663Z,18.4
2022-11-14T07:47:45.910Z,18.3
2022-11-14T07:48:48.434Z,18.3
2022-11-14T07:49:50.967Z,18.5
2022-11-14T07:50:53.468Z,18.4
2022-11-14T07:51:55.680Z,18.4
2022-11-14T07:52:57.644Z,18.4
2022-11-14T07:54:00.130Z,18.4
2022-11-14T07:55:02.637Z,18.3
2022-11-14T07:56:04.555Z,18.4
2022-11-14T07:57:07.076Z,18.4
2022-11-14T07:58:09.269Z,18.3
2022-11-14T07:59:11.177Z,18.4
2022-11-14T08:00:13.631Z,18.4
2022-11-14T08:01:16.268Z,18.4
2022-11-14T08:02:18.365Z,18.4
2022-11-14T08:03:20.566Z,18.4
2022-11-14T08:04:23.073Z,18.4
2022-11-14T08:05:25.593Z,18.4
2022-11-14T08:06:27.574Z,18.4
2022-11-14T08:07:30.263Z,18.4
2022-11-14T08:08:33.664Z,18.3
2022-11-14T08:09:36.199Z,18.4
2022-11-14T08:10:38.412Z,18.4
2022-11-14T08:11:40.606Z,18.3
2022-11-14T08:12:43.121Z,18.4
2022-11-14T08:13:45.350Z,18.3
2022-11-14T08:14:47.549Z,18.4
2022-11-14T08:15:49.751Z,18.4
2022-11-14T08:16:51.973Z,18.5
2022-11-14T08:17:54.181Z,18.3
2022-11-14T08:18:56.380Z,18.4
2022-11-14T08:19:58.902Z,18.4
2022-11-14T08:21:01.492Z,18.3
2022-11-14T08:22:03.429Z,18.3
2022-11-14T08:23:05.634Z,18.3
2022-11-14T08:24:07.864Z,18.4
2022-11-14T08:25:09.780Z,18.3
2022-11-14T08:26:11.416Z,18.4
2022-11-14T08:27:13.887Z,18.3
2022-11-14T08:28:16.153Z,18.4
2022-11-14T08:29:18.658Z,18.3
2022-11-14T08:30:20.649Z,18.3
2022-11-14T08:31:23.130Z,18.3
2022-11-14T08:32:25.640Z,18.4
2022-11-14T08:33:27.587Z,18.4
2022-11-14T08:34:30.146Z,18.3
2022-11-14T08:35:32.383Z,18.4
2022-11-14T08:36:34.919Z,18.4
2022-11-14T08:37:37.127Z,18.4
2022-11-14T08:38:39.643Z,18.3
2022-11-14T08:39:41.606Z,18.4
2022-11-14T08:40:44.096Z,18.3
2022-11-14T08:41:46.589Z,18.4
2022-11-14T08:42:48.509Z,18.4
2022-11-14T08:43:50.509Z,18.4
2022-11-14T08:44:53.254Z,18.3
2022-11-14T08:45:55.162Z,18.4
2022-11-14T08:47:01.827Z,18.4
2022-11-14T08:48:04.346Z,18.4
2022-11-14T08:49:06.544Z,18.4
2022-11-14T08:50:08.763Z,18.3
2022-11-14T08:51:11.292Z,18.3
2022-11-14T08:53:19.024Z,18.4
2022-11-14T08:54:21.225Z,18.3
2022-11-14T08:55:23.756Z,18.4
2022-11-14T08:56:25.965Z,18.4
2022-11-14T08:57:28.165Z,18.4
2022-11-14T08:58:31.422Z,18.3
2022-11-14T08:59:35.586Z,18.3
2022-11-14T09:00:38.108Z,18.4
2022-11-14T09:01:40.058Z,18.3
2022-11-14T09:02:42.305Z,18.3
2022-11-14T09:03:44.835Z,18.4
2022-11-14T09:04:48.095Z,18.4
2022-11-14T09:05:50.449Z,18.4
2022-11-14T09:06:52.768Z,18.3
2022-11-14T09:07:55.269Z,18.3
2022-11-14T09:08:57.184Z,18.3
2022-11-14T09:09:59.377Z,18.4
2022-11-14T09:12:06.857Z,18.4
2022-11-14T09:13:09.060Z,18.3
2022-11-14T09:14:11.523Z,18.5
2022-11-14T09:15:13.784Z,18.2
2022-11-14T09:16:15.695Z,18.4
2022-11-14T09:17:18.197Z,18.3
2022-11-14T09:18:20.386Z,18.4
2022-11-14T09:19:22.438Z,18.3
2022-11-14T09:21:29.632Z,18.4
2022-11-14T09:22:31.926Z,18.3
2022-11-14T09:23:34.715Z,18.5
2022-11-14T09:24:37.199Z,18.3
2022-11-14T09:25:39.692Z,18.3
2022-11-14T09:26:41.670Z,18.3
2022-11-14T09:27:44.164Z,18.3
2022-11-14T09:28:46.361Z,18.3
2022-11-14T09:29:48.832Z,18.4
2022-11-14T09:30:51.362Z,18.3
2022-11-14T09:31:53.562Z,18.3
2022-11-14T09:32:55.198Z,18.4
2022-11-14T09:33:57.674Z,18.3
2022-11-14T09:34:59.614Z,18.4
2022-11-14T09:36:02.128Z,18.4
2022-11-14T09:37:04.627Z,18.3
2022-11-14T09:38:07.177Z,18.4
2022-11-14T09:39:09.693Z,18.3
2022-11-14T09:40:12.024Z,18.4
2022-11-14T09:41:14.228Z,18.3
2022-11-14T09:42:18.097Z,18.4
2022-11-14T09:43:20.571Z,18.3
2022-11-14T09:44:23.051Z,18.3
2022-11-14T09:45:25.524Z,18.3
2022-11-14T09:46:28.068Z,18.3
2022-11-14T09:47:30.278Z,18.3
2022-11-14T09:48:33.322Z,18.3
2022-11-14T09:49:35.629Z,18.3
2022-11-14T09:50:38.560Z,18.3
2022-11-14T09:51:41.047Z,18.3
2022-11-14T09:52:43.520Z,18.4
2022-11-14T09:53:45.471Z,18.2
2022-11-14T09:54:47.957Z,18.3
2022-11-14T09:55:49.926Z,18.3
2022-11-14T09:56:52.121Z,18.3
2022-11-14T09:57:54.360Z,18.3
2022-11-14T09:58:56.838Z,18.4
2022-11-14T09:59:59.058Z,18.3
2022-11-14T10:02:06.782Z,18.3
2022-11-14T10:03:09.112Z,18.4
2022-11-14T10:04:11.067Z,18.3
2022-11-14T10:05:13.262Z,18.4
2022-11-14T10:06:15.470Z,18.4
2022-11-14T10:07:18.159Z,18.4
2022-11-14T10:08:20.656Z,18.4
2022-11-14T10:10:28.161Z,18.3
2022-11-14T10:11:36.648Z,18.4
2022-11-14T10:12:39.144Z,18.2
2022-11-14T10:13:41.646Z,18.3
2022-11-14T10:14:43.295Z,18.3
2022-11-14T10:15:45.785Z,18.3
2022-11-14T10:16:48.296Z,18.3
2022-11-14T10:17:50.790Z,18.3
2022-11-14T10:18:53.046Z,18.4
2022-11-14T10:19:54.706Z,18.4
2022-11-14T10:20:57.201Z,18.3
2022-11-14T10:21:59.698Z,18.3
2022-11-14T10:23:02.384Z,18.3
2022-11-14T10:24:04.323Z,18.4
2022-11-14T10:25:06.838Z,18.3
2022-11-14T10:26:09.087Z,18.4
2022-11-14T10:27:11.328Z,18.3
2022-11-14T10:28:13.537Z,18.4
2022-11-14T10:29:15.779Z,18.3
2022-11-14T10:30:17.731Z,18.3
2022-11-14T10:31:20.263Z,18.4
2022-11-14T10:32:22.470Z,18.2
2022-11-14T10:33:24.703Z,18.3
2022-11-14T10:34:27.475Z,18.3
2022-11-14T10:36:34.632Z,18.3
2022-11-14T10:37:37.132Z,18.4
2022-11-14T10:38:39.331Z,18.3
2022-11-14T10:39:41.811Z,18.3
2022-11-14T10:40:44.284Z,18.2
2022-11-14T10:42:51.236Z,18.3
2022-11-14T10:43:53.764Z,18.3
2022-11-14T10:44:55.750Z,18.3
2022-11-14T10:45:57.976Z,18.4
2022-11-14T10:47:00.472Z,18.3
2022-11-14T10:48:02.942Z,18.3
2022-11-14T10:49:04.849Z,18.3
2022-11-14T10:50:06.828Z,18.3
2022-11-14T10:51:09.040Z,18.4
2022-11-14T10:52:11.248Z,18.3
2022-11-14T10:53:13.735Z,18.3
2022-11-14T10:54:15.385Z,18.3
2022-11-14T10:55:17.869Z,18.3
2022-11-14T10:56:21.743Z,18.4
2022-11-14T10:57:23.371Z,18.3
2022-11-14T10:58:25.321Z,18.4
2022-11-14T10:59:27.352Z,18.4
2022-11-14T11:00:29.905Z,18.3
2022-11-14T11:01:32.245Z,18.2
2022-11-14T11:02:37.050Z,18.4
2022-11-14T11:03:39.282Z,18.3
2022-11-14T11:04:42.058Z,18.3
2022-11-14T11:05:44.571Z,18.3
2022-11-14T11:06:47.180Z,18.2
2022-11-14T11:07:49.266Z,18.3
2022-11-14T11:08:52.244Z,18.2
2022-11-14T11:09:54.431Z,18.4
2022-11-14T11:10:56.597Z,18.4
2022-11-14T11:11:58.800Z,18.4
2022-11-14T11:13:01.167Z,18.4
2022-11-14T11:14:03.790Z,18.3
2022-11-14T11:15:06.294Z,18.3
2022-11-14T11:16:08.514Z,18.3
2022-11-14T11:17:11.001Z,18.3
2022-11-14T11:18:13.523Z,18.3
2022-11-14T11:19:16.004Z,18.3
2022-11-14T11:20:18.149Z,18.3
2022-11-14T11:21:20.851Z,18.3
2022-11-14T11:22:23.743Z,18.3
2022-11-14T11:23:25.673Z,18.3
2022-11-14T11:24:27.877Z,18.3
2022-11-14T11:25:30.074Z,18.3
2022-11-14T11:26:32.013Z,18.3
2022-11-14T11:27:34.214Z,18.4
2022-11-14T11:28:36.716Z,18.3
2022-11-14T11:29:38.968Z,18.4
2022-11-14T11:30:41.447Z,18.3
2022-11-14T11:31:43.944Z,18.3
2022-11-14T11:32:46.424Z,18.3
2022-11-14T11:33:48.633Z,18.3
2022-11-14T11:34:50.538Z,18.4
2022-11-14T11:35:52.774Z,18.3
2022-11-14T11:36:55.296Z,18.3
2022-11-14T11:37:57.765Z,18.3
2022-11-14T11:39:00.243Z,18.4
2022-11-14T11:40:02.138Z,18.3
2022-11-14T11:41:04.613Z,18.3
2022-11-14T11:42:11.285Z,18.3
2022-11-14T11:44:18.557Z,18.2
2022-11-14T11:45:20.823Z,18.2
2022-11-14T11:46:23.337Z,18.3
2022-11-14T11:47:25.861Z,18.3
2022-11-14T11:48:28.336Z,18.3
2022-11-14T11:49:30.540Z,18.3
2022-11-14T11:50:33.006Z,18.3
2022-11-14T11:51:35.486Z,18.3
2022-11-14T11:52:37.730Z,18.4
2022-11-14T11:53:39.674Z,18.3
2022-11-14T11:54:42.149Z,18.3
2022-11-14T11:55:44.681Z,18.3
2022-11-14T11:56:46.605Z,18.3
2022-11-14T11:57:49.112Z,18.3
2022-11-14T11:58:51.595Z,18.3
2022-11-14T11:59:54.091Z,18.3
2022-11-14T12:00:56.329Z,18.3
2022-11-14T12:01:58.687Z,18.2
2022-11-14T12:03:01.071Z,18.2
2022-11-14T12:04:04.407Z,18.3
2022-11-14T12:05:07.151Z,18.3
2022-11-14T12:06:09.639Z,18.3
2022-11-14T12:07:12.103Z,18.3
2022-11-14T12:09:19.648Z,18.2
2022-11-14T12:10:22.139Z,18.3
2022-11-14T12:11:24.057Z,18.4
2022-11-14T12:12:26.542Z,18.2
2022-11-14T12:13:29.498Z,18.4
2022-11-14T12:14:33.389Z,18.3
2022-11-14T12:15:35.599Z,18.2
2022-11-14T12:16:37.831Z,18.3
2022-11-14T12:17:40.328Z,18.3
2022-11-14T12:18:42.558Z,18.3
2022-11-14T12:19:44.753Z,18.3
2022-11-14T12:20:47.235Z,18.2
2022-11-14T12:22:54.694Z,18.2
2022-11-14T12:23:57.242Z,18.3
2022-11-14T12:24:59.707Z,18.3
2022-11-14T12:26:01.919Z,18.3
2022-11-14T12:27:04.133Z,18.3
2022-11-14T12:28:06.758Z,18.3
2022-11-14T12:29:09.177Z,18.2
2022-11-14T12:30:10.850Z,18.2
2022-11-14T12:31:12.761Z,18.3
2022-11-14T12:32:14.723Z,18.2
2022-11-14T12:33:17.223Z,18.3
2022-11-14T12:34:19.549Z,18.2
2022-11-14T12:35:22.438Z,18.3
2022-11-14T12:36:25.451Z,18.3
2022-11-14T12:37:27.838Z,18.3
2022-11-14T12:38:30.251Z,18.2
2022-11-14T12:39:32.804Z,18.2
2022-11-14T12:40:35.278Z,18.3
2022-11-14T12:41:37.189Z,18.2
2022-11-14T12:42:39.106Z,18.2
2022-11-14T12:43:42.316Z,18.3
2022-11-14T12:44:46.613Z,18.3
2022-11-14T12:45:49.105Z,18.3
2022-11-14T12:46:51.333Z,18.2
2022-11-14T12:47:53.356Z,18.3
2022-11-14T12:48:55.910Z,18.2
2022-11-14T12:49:58.133Z,18.4
2022-11-14T12:51:00.328Z,18.2
2022-11-14T12:52:02.255Z,18.3
2022-11-14T12:53:04.745Z,18.3
2022-11-14T12:54:06.939Z,18.3
2022-11-14T12:55:09.510Z,18.2
2022-11-14T12:56:11.727Z,18.3
2022-11-14T12:57:13.946Z,18.3
2022-11-14T12:58:16.425Z,18.2
2022-11-14T12:59:18.646Z,18.3
2022-11-14T13:00:20.855Z,18.3
2022-11-14T13:01:23.252Z,18.3
2022-11-14T13:02:25.517Z,18.3
2022-11-14T13:03:28.222Z,18.2
2022-11-14T13:04:32.284Z,18.2
2022-11-14T13:05:34.523Z,18.3
2022-11-14T13:06:36.719Z,18.3
2022-11-14T13:07:39.321Z,18.3
2022-11-14T13:08:41.786Z,18.4
2022-11-14T13:09:44.007Z,18.2
2022-11-14T13:10:46.277Z,18.3
2022-11-14T13:11:48.758Z,18.2
2022-11-14T13:12:50.958Z,18.3
2022-11-14T13:13:53.455Z,18.3
2022-11-14T13:14:55.946Z,18.3
2022-11-14T13:15:58.142Z,18.2
2022-11-14T13:17:00.620Z,18.2
2022-11-14T13:18:02.540Z,18.2
2022-11-14T13:19:04.773Z,18.2
2022-11-14T13:20:07.276Z,18.3
2022-11-14T13:21:09.481Z,18.3
2022-11-14T13:22:11.701Z,18.4
2022-11-14T13:23:13.908Z,18.3
2022-11-14T13:24:16.402Z,18.2
2022-11-14T13:25:18.895Z,18.3
2022-11-14T13:26:21.800Z,18.3
2022-11-14T13:28:28.694Z,18.3
2022-11-14T13:29:30.899Z,18.3
2022-11-14T13:30:33.363Z,18.3
2022-11-14T13:31:35.568Z,18.2
2022-11-14T13:32:38.064Z,18.3
2022-11-14T13:33:40.550Z,18.2
2022-11-14T13:34:43.070Z,18.2
2022-11-14T13:35:45.584Z,18.2
2022-11-14T13:36:48.087Z,18.3
2022-11-14T13:37:50.570Z,18.3
2022-11-14T13:38:52.788Z,18.3
2022-11-14T13:39:54.977Z,18.3
2022-11-14T13:40:57.194Z,18.3
2022-11-14T13:41:59.864Z,18.3
2022-11-14T13:43:02.614Z,18.4
2022-11-14T13:44:04.863Z,18.3
2022-11-14T13:45:07.054Z,18.3
2022-11-14T13:46:09.266Z,18.3
2022-11-14T13:47:11.195Z,18.2
2022-11-14T13:48:13.109Z,18.3
2022-11-14T13:49:15.580Z,18.2
2022-11-14T13:50:17.862Z,18.3
2022-11-14T13:52:25.119Z,18.3
2022-11-14T13:53:27.207Z,18.2
2022-11-14T13:54:30.729Z,18.4
2022-11-14T13:55:33.218Z,18.3
2022-11-14T13:56:35.441Z,18.3
2022-11-14T13:57:37.965Z,18.2
2022-11-14T13:58:40.433Z,18.3
2022-11-14T13:59:42.911Z,18.2
2022-11-14T14:00:45.137Z,18.3
2022-11-14T14:01:48.017Z,18.3
2022-11-14T14:02:50.254Z,18.2
2022-11-14T14:03:52.732Z,18.3
2022-11-14T14:04:54.943Z,18.3
2022-11-14T14:07:02.653Z,18.3
2022-11-14T14:08:05.648Z,18.2
2022-11-14T14:09:07.843Z,18.2
2022-11-14T14:10:10.050Z,18.3
2022-11-14T14:11:12.246Z,18.2
2022-11-14T14:12:14.481Z,18.2
2022-11-14T14:13:16.739Z,18.3
2022-11-14T14:14:19.221Z,18.2
2022-11-14T14:15:21.701Z,18.3
2022-11-14T14:16:23.898Z,18.3
2022-11-14T14:17:26.090Z,18.3